Weather at Abu Dhabi Northeast Airport - Suweihan Air Base

Public forecast

Using degrees Celsius for public forecast. Weather courtesy of forecast.io.

Closest aviation weather report (METAR) to Abu Dhabi Northeast Airport - Suweihan Air Base

Closest report is Abu Dhabi International Airport, 18.3 nm (34.0 km) WSW.

2024/06/19 07:00 (retrieved 18 minutes ago)

OMAA 190700Z 17005KT 120V210 CAVOK 42/14 Q0999 BECMG 30014KT

Closest aviation forecast (TAF) to Abu Dhabi Northeast Airport - Suweihan Air Base

Closest forecast is Abu Dhabi International Airport, 18.3 nm (34.0 km) WSW.

2024/06/19 06:00 (retrieved 1 hour ago)

TAF OMAA 190500Z 1906/2012 22007KT 8000 NSC BECMG 1906/1908 30014KT BECMG 1916/1918 17006KT BECMG 2006/2008 29014KT